Station Historical Data
Daily Summary for January 4, 2017 Units:  Both    English   Metric
« Previous Day
Next Day »
Daily Weekly Monthly Yearly Custom
  High: Low: Average:
Temperature: 40.3 °F /  4.6 °C 18.1 °F /  -7.7 °C 29.5 °F /  -1.4 °C
Dew Point: 39.0 °F /  3.9 °C 5.8 °F /  -14.6 °C 23.5 °F /  -4.7 °C
Humidity: 95% 57% 79%
Wind Speed: 25.0mph /  40.2km/h - 9.8mph /  15.8km/h
Wind Gust: 33.0mph /  53.1km/h - -
Wind- - West
Pressure: 29.78 in /  1008.4 hPa 29.44 in /  996.8 hPa -
Precipitation: 0.00 in /  0 mm    
Historical Graphs
 
 
Tabular Data for January 4, 2017
Time Temperature Dew Point Pressure Wind Wind Speed Wind Gust Humidity Rainfall Rate (Hourly)
00:04 40.3 °F /  4.6 °C 39.0 °F /  3.9 °C 29.44in /  996.8hPa SW 4.0mph /  6.4km/h 5.0mph /  8km/h 95% 0.00in /  0mm
00:09 40.2 °F /  4.6 °C 38.9 °F /  3.8 °C 29.44in /  996.8hPa WSW 2.0mph /  3.2km/h 5.0mph /  8km/h 95% 0.01in /  0.25mm
00:14 40.2 °F /  4.6 °C 38.9 °F /  3.8 °C 29.44in /  996.8hPa WSW 4.0mph /  6.4km/h 5.0mph /  8km/h 95% 0.01in /  0.25mm
00:19 40.3 °F /  4.6 °C 39.0 °F /  3.9 °C 29.45in /  997.2hPa WSW 6.0mph /  9.7km/h 7.0mph /  11.3km/h 95% 0.01in /  0.25mm
00:24 40.2 °F /  4.6 °C 38.9 °F /  3.8 °C 29.45in /  997.2hPa WSW 4.0mph /  6.4km/h 7.0mph /  11.3km/h 95% 0.01in /  0.25mm
00:29 40.2 °F /  4.6 °C 38.9 °F /  3.8 °C 29.45in /  997.2hPa WSW 4.0mph /  6.4km/h 7.0mph /  11.3km/h 95% 0.01in /  0.25mm
00:34 40.1 °F /  4.5 °C 38.8 °F /  3.8 °C 29.45in /  997.2hPa West 3.0mph /  4.8km/h 7.0mph /  11.3km/h 95% 0.01in /  0.25mm
00:39 40.1 °F /  4.5 °C 38.8 °F /  3.8 °C 29.45in /  997.2hPa WSW 3.0mph /  4.8km/h 9.0mph /  14.5km/h 95% 0.01in /  0.25mm
00:44 40.0 °F /  4.4 °C 38.7 °F /  3.7 °C 29.44in /  996.8hPa West 3.0mph /  4.8km/h 9.0mph /  14.5km/h 95% 0.01in /  0.25mm
00:49 39.9 °F /  4.4 °C 38.6 °F /  3.7 °C 29.44in /  996.8hPa WSW 4.0mph /  6.4km/h 14.0mph /  22.5km/h 95% 0.01in /  0.25mm
00:54 39.8 °F /  4.3 °C 38.5 °F /  3.6 °C 29.44in /  996.8hPa West 3.0mph /  4.8km/h 9.0mph /  14.5km/h 95% 0.01in /  0.25mm
00:59 39.7 °F /  4.3 °C 38.4 °F /  3.6 °C 29.44in /  996.8hPa West 6.0mph /  9.7km/h 10.0mph /  16.1km/h 95% 0.01in /  0.25mm
01:04 39.7 °F /  4.3 °C 38.4 °F /  3.6 °C 29.44in /  996.8hPa WSW 4.0mph /  6.4km/h 10.0mph /  16.1km/h 95% 0.01in /  0.25mm
01:09 39.6 °F /  4.2 °C 38.3 °F /  3.5 °C 29.44in /  996.8hPa West 5.0mph /  8km/h 11.0mph /  17.7km/h 95% 0.00in /  0mm
01:14 39.6 °F /  4.2 °C 38.3 °F /  3.5 °C 29.44in /  996.8hPa West 4.0mph /  6.4km/h 7.0mph /  11.3km/h 95% 0.00in /  0mm
01:19 39.5 °F /  4.2 °C 38.2 °F /  3.4 °C 29.44in /  996.8hPa WSW 6.0mph /  9.7km/h 12.0mph /  19.3km/h 95% 0.00in /  0mm
01:24 39.4 °F /  4.1 °C 38.1 °F /  3.4 °C 29.44in /  996.8hPa West 3.0mph /  4.8km/h 10.0mph /  16.1km/h 95% 0.00in /  0mm
01:29 39.3 °F /  4.1 °C 38.0 °F /  3.3 °C 29.44in /  996.8hPa West 5.0mph /  8km/h 10.0mph /  16.1km/h 95% 0.00in /  0mm
01:34 39.3 °F /  4.1 °C 38.0 °F /  3.3 °C 29.45in /  997.2hPa SW 5.0mph /  8km/h 11.0mph /  17.7km/h 95% 0.00in /  0mm
01:39 39.2 °F /  4 °C 37.9 °F /  3.3 °C 29.45in /  997.2hPa SW 6.0mph /  9.7km/h 10.0mph /  16.1km/h 95% 0.00in /  0mm
01:44 39.1 °F /  3.9 °C 37.8 °F /  3.2 °C 29.45in /  997.2hPa WSW 7.0mph /  11.3km/h 12.0mph /  19.3km/h 95% 0.00in /  0mm
01:49 38.9 °F /  3.8 °C 37.6 °F /  3.1 °C 29.45in /  997.2hPa WSW 6.0mph /  9.7km/h 12.0mph /  19.3km/h 95% 0.00in /  0mm
01:54 38.6 °F /  3.7 °C 37.3 °F /  2.9 °C 29.45in /  997.2hPa West 5.0mph /  8km/h 13.0mph /  20.9km/h 95% 0.00in /  0mm
01:59 38.5 °F /  3.6 °C 37.2 °F /  2.9 °C 29.45in /  997.2hPa SW 6.0mph /  9.7km/h 11.0mph /  17.7km/h 95% 0.00in /  0mm
02:04 38.4 °F /  3.6 °C 37.1 °F /  2.8 °C 29.46in /  997.5hPa WSW 7.0mph /  11.3km/h 13.0mph /  20.9km/h 95% 0.00in /  0mm
02:09 38.2 °F /  3.4 °C 36.9 °F /  2.7 °C 29.46in /  997.5hPa West 9.0mph /  14.5km/h 13.0mph /  20.9km/h 95% 0.00in /  0mm
02:14 38.0 °F /  3.3 °C 36.7 °F /  2.6 °C 29.46in /  997.5hPa WSW 8.0mph /  12.9km/h 15.0mph /  24.1km/h 95% 0.00in /  0mm
02:19 37.9 °F /  3.3 °C 36.6 °F /  2.6 °C 29.46in /  997.5hPa WSW 9.0mph /  14.5km/h 17.0mph /  27.4km/h 95% 0.00in /  0mm
02:24 37.8 °F /  3.2 °C 36.5 °F /  2.5 °C 29.46in /  997.5hPa WSW 6.0mph /  9.7km/h 16.0mph /  25.7km/h 95% 0.00in /  0mm
02:29 37.8 °F /  3.2 °C 36.5 °F /  2.5 °C 29.46in /  997.5hPa SW 9.0mph /  14.5km/h 13.0mph /  20.9km/h 95% 0.01in /  0.25mm
02:34 37.7 °F /  3.2 °C 36.4 °F /  2.4 °C 29.47in /  997.9hPa WSW 7.0mph /  11.3km/h 11.0mph /  17.7km/h 95% 0.01in /  0.25mm
02:39 37.7 °F /  3.2 °C 36.4 °F /  2.4 °C 29.46in /  997.5hPa SW 8.0mph /  12.9km/h 13.0mph /  20.9km/h 95% 0.01in /  0.25mm
02:44 37.7 °F /  3.2 °C 36.4 °F /  2.4 °C 29.46in /  997.5hPa WSW 9.0mph /  14.5km/h 10.0mph /  16.1km/h 95% 0.01in /  0.25mm
02:49 37.7 °F /  3.2 °C 36.4 °F /  2.4 °C 29.46in /  997.5hPa WSW 5.0mph /  8km/h 11.0mph /  17.7km/h 95% 0.01in /  0.25mm
02:54 37.7 °F /  3.2 °C 36.4 °F /  2.4 °C 29.46in /  997.5hPa West 7.0mph /  11.3km/h 11.0mph /  17.7km/h 95% 0.01in /  0.25mm
02:59 37.7 °F /  3.2 °C 36.4 °F /  2.4 °C 29.46in /  997.5hPa WSW 6.0mph /  9.7km/h 11.0mph /  17.7km/h 95% 0.01in /  0.25mm
03:04 37.7 °F /  3.2 °C 36.4 °F /  2.4 °C 29.47in /  997.9hPa WSW 6.0mph /  9.7km/h 10.0mph /  16.1km/h 95% 0.01in /  0.25mm
03:09 37.7 °F /  3.2 °C 36.4 °F /  2.4 °C 29.47in /  997.9hPa West 4.0mph /  6.4km/h 11.0mph /  17.7km/h 95% 0.02in /  0.51mm
03:14 37.7 °F /  3.2 °C 36.4 °F /  2.4 °C 29.47in /  997.9hPa WSW 6.0mph /  9.7km/h 8.0mph /  12.9km/h 95% 0.02in /  0.51mm
03:19 37.7 °F /  3.2 °C 36.4 °F /  2.4 °C 29.47in /  997.9hPa West 4.0mph /  6.4km/h 10.0mph /  16.1km/h 95% 0.02in /  0.51mm
03:24 37.7 °F /  3.2 °C 36.4 °F /  2.4 °C 29.47in /  997.9hPa WSW 5.0mph /  8km/h 12.0mph /  19.3km/h 95% 0.02in /  0.51mm
03:29 37.7 °F /  3.2 °C 36.4 °F /  2.4 °C 29.48in /  998.2hPa WSW 5.0mph /  8km/h 12.0mph /  19.3km/h 95% 0.01in /  0.25mm
03:34 37.7 °F /  3.2 °C 36.4 °F /  2.4 °C 29.48in /  998.2hPa WSW 6.0mph /  9.7km/h 11.0mph /  17.7km/h 95% 0.02in /  0.51mm
03:40 37.7 °F /  3.2 °C 36.4 °F /  2.4 °C 29.48in /  998.2hPa WSW 6.0mph /  9.7km/h 11.0mph /  17.7km/h 95% 0.02in /  0.51mm
03:49 37.7 °F /  3.2 °C 36.4 °F /  2.4 °C 29.48in /  998.2hPa SW 3.0mph /  4.8km/h 13.0mph /  20.9km/h 95% 0.02in /  0.51mm
03:54 37.7 °F /  3.2 °C 36.4 °F /  2.4 °C 29.48in /  998.2hPa SW 9.0mph /  14.5km/h 13.0mph /  20.9km/h 95% 0.03in /  0.76mm
03:59 37.7 °F /  3.2 °C 36.4 °F /  2.4 °C 29.47in /  997.9hPa WSW 6.0mph /  9.7km/h 14.0mph /  22.5km/h 95% 0.03in /  0.76mm
04:04 37.7 °F /  3.2 °C 36.4 °F /  2.4 °C 29.47in /  997.9hPa WSW 7.0mph /  11.3km/h 14.0mph /  22.5km/h 95% 0.03in /  0.76mm
04:09 37.6 °F /  3.1 °C 36.3 °F /  2.4 °C 29.48in /  998.2hPa WSW 8.0mph /  12.9km/h 15.0mph /  24.1km/h 95% 0.02in /  0.51mm
04:14 37.7 °F /  3.2 °C 36.4 °F /  2.4 °C 29.48in /  998.2hPa WNW 6.0mph /  9.7km/h 13.0mph /  20.9km/h 95% 0.02in /  0.51mm
04:19 37.8 °F /  3.2 °C 36.5 °F /  2.5 °C 29.48in /  998.2hPa West 4.0mph /  6.4km/h 14.0mph /  22.5km/h 95% 0.03in /  0.76mm
04:24 37.8 °F /  3.2 °C 36.5 °F /  2.5 °C 29.48in /  998.2hPa WSW 8.0mph /  12.9km/h 17.0mph /  27.4km/h 95% 0.04in /  1.02mm
04:29 37.9 °F /  3.3 °C 36.6 °F /  2.6 °C 29.48in /  998.2hPa WSW 9.0mph /  14.5km/h 18.0mph /  29km/h 95% 0.04in /  1.02mm
04:34 37.9 °F /  3.3 °C 36.6 °F /  2.6 °C 29.47in /  997.9hPa SW 8.0mph /  12.9km/h 14.0mph /  22.5km/h 95% 0.03in /  0.76mm
04:39 37.9 °F /  3.3 °C 36.6 °F /  2.6 °C 29.47in /  997.9hPa SW 9.0mph /  14.5km/h 14.0mph /  22.5km/h 95% 0.03in /  0.76mm
04:44 37.9 °F /  3.3 °C 36.6 °F /  2.6 °C 29.47in /  997.9hPa WSW 9.0mph /  14.5km/h 14.0mph /  22.5km/h 95% 0.03in /  0.76mm
04:49 37.9 °F /  3.3 °C 36.6 °F /  2.6 °C 29.47in /  997.9hPa West 5.0mph /  8km/h 12.0mph /  19.3km/h 95% 0.03in /  0.76mm
04:54 37.9 °F /  3.3 °C 36.6 °F /  2.6 °C 29.48in /  998.2hPa SW 13.0mph /  20.9km/h 18.0mph /  29km/h 95% 0.03in /  0.76mm
04:59 37.7 °F /  3.2 °C 36.4 °F /  2.4 °C 29.47in /  997.9hPa WSW 8.0mph /  12.9km/h 18.0mph /  29km/h 95% 0.03in /  0.76mm
05:04 37.7 °F /  3.2 °C 36.4 °F /  2.4 °C 29.48in /  998.2hPa WSW 9.0mph /  14.5km/h 17.0mph /  27.4km/h 95% 0.03in /  0.76mm
05:09 37.7 °F /  3.2 °C 36.4 °F /  2.4 °C 29.48in /  998.2hPa WSW 8.0mph /  12.9km/h 16.0mph /  25.7km/h 95% 0.03in /  0.76mm
05:14 37.7 °F /  3.2 °C 36.4 °F /  2.4 °C 29.49in /  998.5hPa West 13.0mph /  20.9km/h 13.0mph /  20.9km/h 95% 0.03in /  0.76mm
05:19 37.6 °F /  3.1 °C 36.3 °F /  2.4 °C 29.48in /  998.2hPa WSW 8.0mph /  12.9km/h 15.0mph /  24.1km/h 95% 0.02in /  0.51mm
05:24 37.5 °F /  3.1 °C 35.9 °F /  2.2 °C 29.49in /  998.5hPa SW 10.0mph /  16.1km/h 17.0mph /  27.4km/h 94% 0.01in /  0.25mm
05:29 37.3 °F /  2.9 °C 35.7 °F /  2.1 °C 29.49in /  998.5hPa WSW 10.0mph /  16.1km/h 18.0mph /  29km/h 94% 0.02in /  0.51mm
05:34 37.3 °F /  2.9 °C 35.7 °F /  2.1 °C 29.49in /  998.5hPa WSW 9.0mph /  14.5km/h 18.0mph /  29km/h 94% 0.02in /  0.51mm
05:39 37.1 °F /  2.8 °C 35.5 °F /  1.9 °C 29.49in /  998.5hPa WSW 10.0mph /  16.1km/h 19.0mph /  30.6km/h 94% 0.02in /  0.51mm
05:44 37.1 °F /  2.8 °C 35.5 °F /  1.9 °C 29.49in /  998.5hPa WSW 7.0mph /  11.3km/h 17.0mph /  27.4km/h 94% 0.02in /  0.51mm
05:49 37.1 °F /  2.8 °C 35.3 °F /  1.8 °C 29.49in /  998.5hPa SW 6.0mph /  9.7km/h 18.0mph /  29km/h 93% 0.02in /  0.51mm
05:54 37.0 °F /  2.8 °C 35.2 °F /  1.8 °C 29.50in /  998.9hPa West 8.0mph /  12.9km/h 17.0mph /  27.4km/h 93% 0.02in /  0.51mm
05:59 36.9 °F /  2.7 °C 35.1 °F /  1.7 °C 29.50in /  998.9hPa WNW 5.0mph /  8km/h 22.0mph /  35.4km/h 93% 0.02in /  0.51mm
06:04 36.9 °F /  2.7 °C 35.1 °F /  1.7 °C 29.50in /  998.9hPa WSW 10.0mph /  16.1km/h 22.0mph /  35.4km/h 93% 0.02in /  0.51mm
06:09 36.9 °F /  2.7 °C 35.1 °F /  1.7 °C 29.50in /  998.9hPa WSW 10.0mph /  16.1km/h 20.0mph /  32.2km/h 93% 0.02in /  0.51mm
06:14 36.9 °F /  2.7 °C 35.1 °F /  1.7 °C 29.50in /  998.9hPa WSW 10.0mph /  16.1km/h 20.0mph /  32.2km/h 93% 0.02in /  0.51mm
06:19 37.0 °F /  2.8 °C 35.2 °F /  1.8 °C 29.51in /  999.2hPa WSW 9.0mph /  14.5km/h 19.0mph /  30.6km/h 93% 0.02in /  0.51mm
06:24 37.0 °F /  2.8 °C 35.2 °F /  1.8 °C 29.51in /  999.2hPa West 7.0mph /  11.3km/h 17.0mph /  27.4km/h 93% 0.02in /  0.51mm
06:29 37.1 °F /  2.8 °C 35.3 °F /  1.8 °C 29.51in /  999.2hPa WSW 6.0mph /  9.7km/h 24.0mph /  38.6km/h 93% 0.01in /  0.25mm
06:34 37.1 °F /  2.8 °C 35.3 °F /  1.8 °C 29.51in /  999.2hPa WSW 9.0mph /  14.5km/h 24.0mph /  38.6km/h 93% 0.01in /  0.25mm
06:39 37.1 °F /  2.8 °C 35.0 °F /  1.7 °C 29.51in /  999.2hPa WSW 10.0mph /  16.1km/h 18.0mph /  29km/h 92% 0.01in /  0.25mm
06:44 37.1 °F /  2.8 °C 35.0 °F /  1.7 °C 29.51in /  999.2hPa WSW 11.0mph /  17.7km/h 24.0mph /  38.6km/h 92% 0.01in /  0.25mm
06:49 37.0 °F /  2.8 °C 34.9 °F /  1.6 °C 29.51in /  999.2hPa WSW 9.0mph /  14.5km/h 19.0mph /  30.6km/h 92% 0.01in /  0.25mm
06:54 37.0 °F /  2.8 °C 34.6 °F /  1.4 °C 29.51in /  999.2hPa West 8.0mph /  12.9km/h 20.0mph /  32.2km/h 91% 0.00in /  0mm
06:59 37.0 °F /  2.8 °C 34.6 °F /  1.4 °C 29.52in /  999.5hPa WSW 10.0mph /  16.1km/h 16.0mph /  25.7km/h 91% 0.00in /  0mm
07:04 37.0 °F /  2.8 °C 34.6 °F /  1.4 °C 29.51in /  999.2hPa West 5.0mph /  8km/h 18.0mph /  29km/h 91% 0.00in /  0mm
07:09 37.0 °F /  2.8 °C 34.6 °F /  1.4 °C 29.51in /  999.2hPa WSW 9.0mph /  14.5km/h 21.0mph /  33.8km/h 91% 0.00in /  0mm
07:14 37.0 °F /  2.8 °C 34.9 °F /  1.6 °C 29.51in /  999.2hPa WSW 10.0mph /  16.1km/h 21.0mph /  33.8km/h 92% 0.00in /  0mm
07:19 36.9 °F /  2.7 °C 34.8 °F /  1.6 °C 29.51in /  999.2hPa WSW 10.0mph /  16.1km/h 18.0mph /  29km/h 92% 0.00in /  0mm
07:24 36.9 °F /  2.7 °C 34.8 °F /  1.6 °C 29.51in /  999.2hPa WSW 9.0mph /  14.5km/h 16.0mph /  25.7km/h 92% 0.00in /  0mm
07:29 36.9 °F /  2.7 °C 34.8 °F /  1.6 °C 29.51in /  999.2hPa West 12.0mph /  19.3km/h 23.0mph /  37km/h 92% 0.00in /  0mm
07:34 36.9 °F /  2.7 °C 34.8 °F /  1.6 °C 29.51in /  999.2hPa WSW 7.0mph /  11.3km/h 19.0mph /  30.6km/h 92% 0.00in /  0mm
07:39 36.9 °F /  2.7 °C 34.8 °F /  1.6 °C 29.51in /  999.2hPa WSW 10.0mph /  16.1km/h 27.0mph /  43.5km/h 92% 0.00in /  0mm
07:44 36.8 °F /  2.7 °C 34.7 °F /  1.5 °C 29.51in /  999.2hPa WSW 10.0mph /  16.1km/h 27.0mph /  43.5km/h 92% 0.00in /  0mm
07:49 36.7 °F /  2.6 °C 34.6 °F /  1.4 °C 29.51in /  999.2hPa WSW 9.0mph /  14.5km/h 19.0mph /  30.6km/h 92% 0.00in /  0mm
07:54 36.6 °F /  2.6 °C 34.5 °F /  1.4 °C 29.51in /  999.2hPa West 10.0mph /  16.1km/h 21.0mph /  33.8km/h 92% 0.00in /  0mm
07:59 36.6 °F /  2.6 °C 34.5 °F /  1.4 °C 29.51in /  999.2hPa WSW 9.0mph /  14.5km/h 21.0mph /  33.8km/h 92% 0.00in /  0mm
08:04 36.6 °F /  2.6 °C 34.5 °F /  1.4 °C 29.51in /  999.2hPa WNW 6.0mph /  9.7km/h 16.0mph /  25.7km/h 92% 0.00in /  0mm
08:09 36.6 °F /  2.6 °C 34.5 °F /  1.4 °C 29.51in /  999.2hPa WSW 9.0mph /  14.5km/h 18.0mph /  29km/h 92% 0.00in /  0mm
08:14 36.5 °F /  2.5 °C 34.4 °F /  1.3 °C 29.51in /  999.2hPa WSW 8.0mph /  12.9km/h 18.0mph /  29km/h 92% 0.00in /  0mm
08:19 36.4 °F /  2.4 °C 34.0 °F /  1.1 °C 29.51in /  999.2hPa WSW 7.0mph /  11.3km/h 15.0mph /  24.1km/h 91% 0.00in /  0mm
08:24 36.4 °F /  2.4 °C 34.0 °F /  1.1 °C 29.52in /  999.5hPa WSW 8.0mph /  12.9km/h 17.0mph /  27.4km/h 91% 0.00in /  0mm
08:29 36.4 °F /  2.4 °C 34.0 °F /  1.1 °C 29.52in /  999.5hPa WSW 8.0mph /  12.9km/h 17.0mph /  27.4km/h 91% 0.01in /  0.25mm
08:34 36.1 °F /  2.3 °C 33.7 °F /  0.9 °C 29.52in /  999.5hPa West 5.0mph /  8km/h 16.0mph /  25.7km/h 91% 0.01in /  0.25mm
08:39 36.0 °F /  2.2 °C 33.6 °F /  0.9 °C 29.52in /  999.5hPa WSW 7.0mph /  11.3km/h 16.0mph /  25.7km/h 91% 0.01in /  0.25mm
08:44 35.8 °F /  2.1 °C 33.2 °F /  0.7 °C 29.52in /  999.5hPa West 8.0mph /  12.9km/h 16.0mph /  25.7km/h 90% 0.01in /  0.25mm
08:49 35.7 °F /  2.1 °C 33.1 °F /  0.6 °C 29.52in /  999.5hPa West 8.0mph /  12.9km/h 16.0mph /  25.7km/h 90% 0.01in /  0.25mm
08:54 35.6 °F /  2 °C 33.0 °F /  0.6 °C 29.52in /  999.5hPa SW 6.0mph /  9.7km/h 14.0mph /  22.5km/h 90% 0.01in /  0.25mm
08:59 35.5 °F /  1.9 °C 32.9 °F /  0.5 °C 29.52in /  999.5hPa SSW 8.0mph /  12.9km/h 14.0mph /  22.5km/h 90% 0.02in /  0.51mm
09:04 35.5 °F /  1.9 °C 32.9 °F /  0.5 °C 29.52in /  999.5hPa WSW 7.0mph /  11.3km/h 19.0mph /  30.6km/h 90% 0.02in /  0.51mm
09:09 35.4 °F /  1.9 °C 32.8 °F /  0.4 °C 29.52in /  999.5hPa WSW 7.0mph /  11.3km/h 25.0mph /  40.2km/h 90% 0.02in /  0.51mm
09:14 35.4 °F /  1.9 °C 32.8 °F /  0.4 °C 29.52in /  999.5hPa WSW 7.0mph /  11.3km/h 17.0mph /  27.4km/h 90% 0.02in /  0.51mm
09:19 35.2 °F /  1.8 °C 32.6 °F /  0.3 °C 29.52in /  999.5hPa WSW 9.0mph /  14.5km/h 21.0mph /  33.8km/h 90% 0.02in /  0.51mm
09:24 34.6 °F /  1.4 °C 32.0 °F /  0 °C 29.53in /  999.9hPa WSW 10.0mph /  16.1km/h 21.0mph /  33.8km/h 90% 0.02in /  0.51mm
09:29 34.5 °F /  1.4 °C 31.6 °F /  -0.2 °C 29.53in /  999.9hPa West 10.0mph /  16.1km/h 19.0mph /  30.6km/h 89% 0.01in /  0.25mm
09:34 34.5 °F /  1.4 °C 31.3 °F /  -0.4 °C 29.53in /  999.9hPa SW 8.0mph /  12.9km/h 22.0mph /  35.4km/h 88% 0.01in /  0.25mm
09:39 34.7 °F /  1.5 °C 30.7 °F /  -0.7 °C 29.53in /  999.9hPa SW 16.0mph /  25.7km/h 24.0mph /  38.6km/h 85% 0.02in /  0.51mm
09:44 34.8 °F /  1.6 °C 30.5 °F /  -0.8 °C 29.53in /  999.9hPa West 17.0mph /  27.4km/h 24.0mph /  38.6km/h 84% 0.02in /  0.51mm
09:49 34.8 °F /  1.6 °C 30.5 °F /  -0.8 °C 29.53in /  999.9hPa WSW 8.0mph /  12.9km/h 25.0mph /  40.2km/h 84% 0.02in /  0.51mm
09:54 34.7 °F /  1.5 °C 30.4 °F /  -0.9 °C 29.54in /  1000.2hPa WSW 13.0mph /  20.9km/h 25.0mph /  40.2km/h 84% 0.02in /  0.51mm
09:59 34.6 °F /  1.4 °C 30.6 °F /  -0.8 °C 29.54in /  1000.2hPa WSW 11.0mph /  17.7km/h 25.0mph /  40.2km/h 85% 0.01in /  0.25mm
10:04 34.5 °F /  1.4 °C 30.7 °F /  -0.7 °C 29.54in /  1000.2hPa WSW 10.0mph /  16.1km/h 25.0mph /  40.2km/h 86% 0.01in /  0.25mm
10:09 34.4 °F /  1.3 °C 30.6 °F /  -0.8 °C 29.55in /  1000.6hPa WSW 15.0mph /  24.1km/h 18.0mph /  29km/h 86% 0.01in /  0.25mm
10:14 34.4 °F /  1.3 °C 30.1 °F /  -1.1 °C 29.55in /  1000.6hPa WSW 17.0mph /  27.4km/h 22.0mph /  35.4km/h 84% 0.01in /  0.25mm
10:19 34.4 °F /  1.3 °C 29.8 °F /  -1.2 °C 29.55in /  1000.6hPa WNW 8.0mph /  12.9km/h 20.0mph /  32.2km/h 83% 0.01in /  0.25mm
10:24 34.4 °F /  1.3 °C 29.8 °F /  -1.2 °C 29.55in /  1000.6hPa WSW 9.0mph /  14.5km/h 20.0mph /  32.2km/h 83% 0.01in /  0.25mm
10:29 34.2 °F /  1.2 °C 29.3 °F /  -1.5 °C 29.56in /  1000.9hPa WSW 11.0mph /  17.7km/h 24.0mph /  38.6km/h 82% 0.01in /  0.25mm
10:34 33.9 °F /  1.1 °C 28.4 °F /  -2 °C 29.56in /  1000.9hPa WSW 14.0mph /  22.5km/h 24.0mph /  38.6km/h 80% 0.01in /  0.25mm
10:39 33.5 °F /  0.8 °C 27.7 °F /  -2.4 °C 29.55in /  1000.6hPa WSW 14.0mph /  22.5km/h 25.0mph /  40.2km/h 79% 0.00in /  0mm
10:44 33.3 °F /  0.7 °C 27.8 °F /  -2.3 °C 29.56in /  1000.9hPa West 20.0mph /  32.2km/h 31.0mph /  49.9km/h 80% 0.00in /  0mm
10:49 33.1 °F /  0.6 °C 27.3 °F /  -2.6 °C 29.56in /  1000.9hPa WSW 11.0mph /  17.7km/h 29.0mph /  46.7km/h 79% 0.00in /  0mm
10:54 33.1 °F /  0.6 °C 27.0 °F /  -2.8 °C 29.56in /  1000.9hPa SSW 11.0mph /  17.7km/h 28.0mph /  45.1km/h 78% 0.00in /  0mm
10:59 32.9 °F /  0.5 °C 26.8 °F /  -2.9 °C 29.56in /  1000.9hPa WSW 9.0mph /  14.5km/h 27.0mph /  43.5km/h 78% 0.00in /  0mm
11:04 32.6 °F /  0.3 °C 26.5 °F /  -3.1 °C 29.56in /  1000.9hPa WSW 14.0mph /  22.5km/h 29.0mph /  46.7km/h 78% 0.00in /  0mm
11:09 32.4 °F /  0.2 °C 26.0 °F /  -3.3 °C 29.56in /  1000.9hPa WSW 15.0mph /  24.1km/h 29.0mph /  46.7km/h 77% 0.00in /  0mm
11:14 32.3 °F /  0.2 °C 24.9 °F /  -3.9 °C 29.56in /  1000.9hPa WSW 15.0mph /  24.1km/h 28.0mph /  45.1km/h 74% 0.00in /  0mm
11:19 32.4 °F /  0.2 °C 24.7 °F /  -4.1 °C 29.56in /  1000.9hPa SW 20.0mph /  32.2km/h 29.0mph /  46.7km/h 73% 0.00in /  0mm
11:24 32.4 °F /  0.2 °C 24.0 °F /  -4.4 °C 29.56in /  1000.9hPa West 12.0mph /  19.3km/h 24.0mph /  38.6km/h 71% 0.00in /  0mm
11:29 32.5 °F /  0.3 °C 24.1 °F /  -4.4 °C 29.56in /  1000.9hPa WSW 13.0mph /  20.9km/h 28.0mph /  45.1km/h 71% 0.00in /  0mm
11:34 32.3 °F /  0.2 °C 23.9 °F /  -4.5 °C 29.56in /  1000.9hPa West 15.0mph /  24.1km/h 26.0mph /  41.8km/h 71% 0.00in /  0mm
11:39 31.9 °F /  -0.1 °C 23.9 °F /  -4.5 °C 29.57in /  1001.2hPa WSW 7.0mph /  11.3km/h 23.0mph /  37km/h 72% 0.00in /  0mm
11:44 31.7 °F /  -0.2 °C 24.0 °F /  -4.4 °C 29.57in /  1001.2hPa WSW 16.0mph /  25.7km/h 28.0mph /  45.1km/h 73% 0.00in /  0mm
11:49 31.4 °F /  -0.3 °C 23.4 °F /  -4.8 °C 29.56in /  1000.9hPa NW 17.0mph /  27.4km/h 29.0mph /  46.7km/h 72% 0.00in /  0mm
11:54 31.4 °F /  -0.3 °C 24.1 °F /  -4.4 °C 29.56in /  1000.9hPa WSW 14.0mph /  22.5km/h 29.0mph /  46.7km/h 74% 0.00in /  0mm
11:59 31.3 °F /  -0.4 °C 23.6 °F /  -4.7 °C 29.57in /  1001.2hPa WSW 25.0mph /  40.2km/h 25.0mph /  40.2km/h 73% 0.00in /  0mm
12:04 31.1 °F /  -0.5 °C 23.1 °F /  -4.9 °C 29.56in /  1000.9hPa WSW 11.0mph /  17.7km/h 25.0mph /  40.2km/h 72% 0.00in /  0mm
12:09 30.9 °F /  -0.6 °C 22.3 °F /  -5.4 °C 29.56in /  1000.9hPa WSW 14.0mph /  22.5km/h 27.0mph /  43.5km/h 70% 0.00in /  0mm
12:14 30.7 °F /  -0.7 °C 21.4 °F /  -5.9 °C 29.57in /  1001.2hPa WSW 16.0mph /  25.7km/h 27.0mph /  43.5km/h 68% 0.00in /  0mm
12:19 30.6 °F /  -0.8 °C 22.3 °F /  -5.4 °C 29.57in /  1001.2hPa WSW 13.0mph /  20.9km/h 27.0mph /  43.5km/h 71% 0.00in /  0mm
12:24 30.3 °F /  -0.9 °C 22.7 °F /  -5.2 °C 29.57in /  1001.2hPa WSW 12.0mph /  19.3km/h 24.0mph /  38.6km/h 73% 0.00in /  0mm
12:29 29.8 °F /  -1.2 °C 22.5 °F /  -5.3 °C 29.58in /  1001.6hPa WSW 14.0mph /  22.5km/h 24.0mph /  38.6km/h 74% 0.00in /  0mm
12:34 29.2 °F /  -1.6 °C 21.9 °F /  -5.6 °C 29.57in /  1001.2hPa SSW 10.0mph /  16.1km/h 29.0mph /  46.7km/h 74% 0.00in /  0mm
12:39 29.1 °F /  -1.6 °C 21.5 °F /  -5.8 °C 29.57in /  1001.2hPa WSW 15.0mph /  24.1km/h 29.0mph /  46.7km/h 73% 0.00in /  0mm
12:44 29.0 °F /  -1.7 °C 22.1 °F /  -5.5 °C 29.57in /  1001.2hPa West 6.0mph /  9.7km/h 24.0mph /  38.6km/h 75% 0.00in /  0mm
12:49 28.9 °F /  -1.7 °C 22.3 °F /  -5.4 °C 29.58in /  1001.6hPa WSW 9.0mph /  14.5km/h 30.0mph /  48.3km/h 76% 0.00in /  0mm
12:54 29.0 °F /  -1.7 °C 22.1 °F /  -5.5 °C 29.57in /  1001.2hPa WSW 11.0mph /  17.7km/h 18.0mph /  29km/h 75% 0.00in /  0mm
12:59 28.9 °F /  -1.7 °C 21.0 °F /  -6.1 °C 29.58in /  1001.6hPa West 16.0mph /  25.7km/h 27.0mph /  43.5km/h 72% 0.00in /  0mm
13:04 28.7 °F /  -1.8 °C 20.1 °F /  -6.6 °C 29.58in /  1001.6hPa West 22.0mph /  35.4km/h 30.0mph /  48.3km/h 70% 0.00in /  0mm
13:09 28.6 °F /  -1.9 °C 19.4 °F /  -7 °C 29.58in /  1001.6hPa WSW 16.0mph /  25.7km/h 33.0mph /  53.1km/h 68% 0.00in /  0mm
13:14 28.8 °F /  -1.8 °C 19.2 °F /  -7.1 °C 29.58in /  1001.6hPa WSW 15.0mph /  24.1km/h 33.0mph /  53.1km/h 67% 0.00in /  0mm
13:19 30.1 °F /  -1.1 °C 19.7 °F /  -6.8 °C 29.58in /  1001.6hPa West 13.0mph /  20.9km/h 25.0mph /  40.2km/h 65% 0.00in /  0mm
13:24 30.3 °F /  -0.9 °C 19.9 °F /  -6.7 °C 29.58in /  1001.6hPa West 13.0mph /  20.9km/h 24.0mph /  38.6km/h 65% 0.00in /  0mm
13:29 29.5 °F /  -1.4 °C 18.1 °F /  -7.7 °C 29.58in /  1001.6hPa WSW 15.0mph /  24.1km/h 32.0mph /  51.5km/h 62% 0.00in /  0mm
13:34 29.2 °F /  -1.6 °C 18.2 °F /  -7.7 °C 29.58in /  1001.6hPa West 9.0mph /  14.5km/h 24.0mph /  38.6km/h 63% 0.00in /  0mm
13:39 28.8 °F /  -1.8 °C 18.1 °F /  -7.7 °C 29.59in /  1001.9hPa WSW 12.0mph /  19.3km/h 23.0mph /  37km/h 64% 0.00in /  0mm
13:44 28.2 °F /  -2.1 °C 17.9 °F /  -7.8 °C 29.59in /  1001.9hPa WSW 14.0mph /  22.5km/h 32.0mph /  51.5km/h 65% 0.00in /  0mm
13:49 27.9 °F /  -2.3 °C 18.0 °F /  -7.8 °C 29.60in /  1002.3hPa WSW 15.0mph /  24.1km/h 33.0mph /  53.1km/h 66% 0.00in /  0mm
13:54 27.7 °F /  -2.4 °C 19.2 °F /  -7.1 °C 29.60in /  1002.3hPa WSW 11.0mph /  17.7km/h 33.0mph /  53.1km/h 70% 0.00in /  0mm
13:59 27.6 °F /  -2.4 °C 18.8 °F /  -7.3 °C 29.60in /  1002.3hPa WSW 7.0mph /  11.3km/h 24.0mph /  38.6km/h 69% 0.00in /  0mm
14:04 27.2 °F /  -2.7 °C 19.0 °F /  -7.2 °C 29.60in /  1002.3hPa West 13.0mph /  20.9km/h 28.0mph /  45.1km/h 71% 0.00in /  0mm
14:09 26.7 °F /  -2.9 °C 20.1 °F /  -6.6 °C 29.60in /  1002.3hPa WNW 10.0mph /  16.1km/h 15.0mph /  24.1km/h 76% 0.00in /  0mm
14:14 26.6 °F /  -3 °C 20.4 °F /  -6.4 °C 29.60in /  1002.3hPa West 12.0mph /  19.3km/h 16.0mph /  25.7km/h 77% 0.00in /  0mm
14:19 26.4 °F /  -3.1 °C 19.5 °F /  -6.9 °C 29.61in /  1002.6hPa West 9.0mph /  14.5km/h 20.0mph /  32.2km/h 75% 0.00in /  0mm
14:24 26.1 °F /  -3.3 °C 19.6 °F /  -6.9 °C 29.61in /  1002.6hPa West 11.0mph /  17.7km/h 23.0mph /  37km/h 76% 0.00in /  0mm
14:29 25.5 °F /  -3.6 °C 19.6 °F /  -6.9 °C 29.62in /  1002.9hPa West 10.0mph /  16.1km/h 23.0mph /  37km/h 78% 0.00in /  0mm
14:34 25.0 °F /  -3.9 °C 19.4 °F /  -7 °C 29.62in /  1002.9hPa West 11.0mph /  17.7km/h 24.0mph /  38.6km/h 79% 0.00in /  0mm
14:39 24.6 °F /  -4.1 °C 18.4 °F /  -7.6 °C 29.62in /  1002.9hPa West 11.0mph /  17.7km/h 24.0mph /  38.6km/h 77% 0.00in /  0mm
14:44 24.3 °F /  -4.3 °C 18.7 °F /  -7.4 °C 29.63in /  1003.3hPa West 11.0mph /  17.7km/h 20.0mph /  32.2km/h 79% 0.00in /  0mm
14:49 24.0 °F /  -4.4 °C 19.0 °F /  -7.2 °C 29.63in /  1003.3hPa West 10.0mph /  16.1km/h 20.0mph /  32.2km/h 81% 0.00in /  0mm
14:54 23.7 °F /  -4.6 °C 19.0 °F /  -7.2 °C 29.64in /  1003.6hPa West 11.0mph /  17.7km/h 19.0mph /  30.6km/h 82% 0.00in /  0mm
14:59 23.3 °F /  -4.8 °C 18.6 °F /  -7.4 °C 29.64in /  1003.6hPa WSW 7.0mph /  11.3km/h 17.0mph /  27.4km/h 82% 0.00in /  0mm
15:04 23.1 °F /  -4.9 °C 18.7 °F /  -7.4 °C 29.65in /  1003.9hPa North 8.0mph /  12.9km/h 17.0mph /  27.4km/h 83% 0.00in /  0mm
15:09 22.7 °F /  -5.2 °C 17.7 °F /  -7.9 °C 29.65in /  1003.9hPa SW 14.0mph /  22.5km/h 20.0mph /  32.2km/h 81% 0.00in /  0mm
15:14 22.4 °F /  -5.3 °C 17.2 °F /  -8.2 °C 29.66in /  1004.3hPa West 9.0mph /  14.5km/h 23.0mph /  37km/h 80% 0.00in /  0mm
15:19 22.1 °F /  -5.5 °C 16.3 °F /  -8.7 °C 29.65in /  1003.9hPa West 12.0mph /  19.3km/h 23.0mph /  37km/h 78% 0.00in /  0mm
15:24 22.1 °F /  -5.5 °C 16.0 °F /  -8.9 °C 29.66in /  1004.3hPa West 11.0mph /  17.7km/h 22.0mph /  35.4km/h 77% 0.00in /  0mm
15:29 22.0 °F /  -5.6 °C 16.5 °F /  -8.6 °C 29.66in /  1004.3hPa West 9.0mph /  14.5km/h 20.0mph /  32.2km/h 79% 0.00in /  0mm
15:34 21.9 °F /  -5.6 °C 16.1 °F /  -8.8 °C 29.66in /  1004.3hPa West 8.0mph /  12.9km/h 16.0mph /  25.7km/h 78% 0.00in /  0mm
15:39 21.9 °F /  -5.6 °C 15.2 °F /  -9.3 °C 29.67in /  1004.6hPa West 9.0mph /  14.5km/h 19.0mph /  30.6km/h 75% 0.00in /  0mm
15:44 21.6 °F /  -5.8 °C 14.9 °F /  -9.5 °C 29.67in /  1004.6hPa WNW 13.0mph /  20.9km/h 23.0mph /  37km/h 75% 0.00in /  0mm
15:49 21.4 °F /  -5.9 °C 14.7 °F /  -9.6 °C 29.67in /  1004.6hPa West 12.0mph /  19.3km/h 17.0mph /  27.4km/h 75% 0.00in /  0mm
15:54 21.6 °F /  -5.8 °C 14.0 °F /  -10 °C 29.67in /  1004.6hPa West 9.0mph /  14.5km/h 18.0mph /  29km/h 72% 0.00in /  0mm
15:59 21.6 °F /  -5.8 °C 14.6 °F /  -9.7 °C 29.67in /  1004.6hPa WSW 10.0mph /  16.1km/h 21.0mph /  33.8km/h 74% 0.00in /  0mm
16:04 21.5 °F /  -5.8 °C 13.9 °F /  -10.1 °C 29.68in /  1005hPa West 9.0mph /  14.5km/h 20.0mph /  32.2km/h 72% 0.00in /  0mm
16:09 21.5 °F /  -5.8 °C 13.9 °F /  -10.1 °C 29.67in /  1004.6hPa WNW 15.0mph /  24.1km/h 21.0mph /  33.8km/h 72% 0.00in /  0mm
16:14 21.4 °F /  -5.9 °C 13.1 °F /  -10.5 °C 29.68in /  1005hPa NW 11.0mph /  17.7km/h 19.0mph /  30.6km/h 70% 0.00in /  0mm
16:19 21.3 °F /  -5.9 °C 13.0 °F /  -10.6 °C 29.68in /  1005hPa West 11.0mph /  17.7km/h 21.0mph /  33.8km/h 70% 0.00in /  0mm
16:24 21.3 °F /  -5.9 °C 12.4 °F /  -10.9 °C 29.68in /  1005hPa West 10.0mph /  16.1km/h 22.0mph /  35.4km/h 68% 0.00in /  0mm
16:29 21.2 °F /  -6 °C 11.6 °F /  -11.3 °C 29.68in /  1005hPa WSW 6.0mph /  9.7km/h 17.0mph /  27.4km/h 66% 0.00in /  0mm
16:34 21.2 °F /  -6 °C 11.9 °F /  -11.2 °C 29.69in /  1005.3hPa West 9.0mph /  14.5km/h 21.0mph /  33.8km/h 67% 0.00in /  0mm
16:39 21.1 °F /  -6.1 °C 11.5 °F /  -11.4 °C 29.69in /  1005.3hPa WNW 7.0mph /  11.3km/h 21.0mph /  33.8km/h 66% 0.00in /  0mm
16:44 21.0 °F /  -6.1 °C 11.8 °F /  -11.2 °C 29.69in /  1005.3hPa SW 15.0mph /  24.1km/h 20.0mph /  32.2km/h 67% 0.00in /  0mm
16:49 21.0 °F /  -6.1 °C 12.1 °F /  -11.1 °C 29.69in /  1005.3hPa NW 8.0mph /  12.9km/h 16.0mph /  25.7km/h 68% 0.00in /  0mm
16:54 20.9 °F /  -6.2 °C 11.0 °F /  -11.7 °C 29.69in /  1005.3hPa West 8.0mph /  12.9km/h 19.0mph /  30.6km/h 65% 0.00in /  0mm
16:59 21.0 °F /  -6.1 °C 11.4 °F /  -11.4 °C 29.69in /  1005.3hPa West 9.0mph /  14.5km/h 19.0mph /  30.6km/h 66% 0.00in /  0mm
17:04 20.9 °F /  -6.2 °C 11.3 °F /  -11.5 °C 29.69in /  1005.3hPa West 9.0mph /  14.5km/h 18.0mph /  29km/h 66% 0.00in /  0mm
17:09 20.9 °F /  -6.2 °C 11.7 °F /  -11.3 °C 29.69in /  1005.3hPa West 8.0mph /  12.9km/h 18.0mph /  29km/h 67% 0.00in /  0mm
17:14 21.0 °F /  -6.1 °C 11.8 °F /  -11.2 °C 29.69in /  1005.3hPa West 8.0mph /  12.9km/h 18.0mph /  29km/h 67% 0.00in /  0mm
17:19 21.1 °F /  -6.1 °C 11.8 °F /  -11.2 °C 29.69in /  1005.3hPa West 7.0mph /  11.3km/h 15.0mph /  24.1km/h 67% 0.00in /  0mm
17:24 21.1 °F /  -6.1 °C 11.8 °F /  -11.2 °C 29.69in /  1005.3hPa WNW 15.0mph /  24.1km/h 17.0mph /  27.4km/h 67% 0.00in /  0mm
17:29 21.2 °F /  -6 °C 11.9 °F /  -11.2 °C 29.69in /  1005.3hPa West 13.0mph /  20.9km/h 16.0mph /  25.7km/h 67% 0.00in /  0mm
17:34 21.1 °F /  -6.1 °C 12.2 °F /  -11 °C 29.69in /  1005.3hPa West 6.0mph /  9.7km/h 18.0mph /  29km/h 68% 0.00in /  0mm
17:39 21.1 °F /  -6.1 °C 12.8 °F /  -10.7 °C 29.70in /  1005.6hPa West 6.0mph /  9.7km/h 15.0mph /  24.1km/h 70% 0.00in /  0mm
18:00 20.6 °F /  -6.3 °C 13.6 °F /  -10.2 °C 29.70in /  1005.6hPa West 8.0mph /  12.9km/h 15.0mph /  24.1km/h 74% 0.00in /  0mm
18:05 20.5 °F /  -6.4 °C 14.4 °F /  -9.8 °C 29.70in /  1005.6hPa WSW 9.0mph /  14.5km/h 19.0mph /  30.6km/h 77% 0.00in /  0mm
18:14 20.3 °F /  -6.5 °C 14.5 °F /  -9.7 °C 29.69in /  1005.3hPa West 7.0mph /  11.3km/h 14.0mph /  22.5km/h 78% 0.00in /  0mm
18:19 20.3 °F /  -6.5 °C 13.9 °F /  -10.1 °C 29.70in /  1005.6hPa West 7.0mph /  11.3km/h 15.0mph /  24.1km/h 76% 0.00in /  0mm
18:24 20.6 °F /  -6.3 °C 13.9 °F /  -10.1 °C 29.70in /  1005.6hPa WSW 6.0mph /  9.7km/h 15.0mph /  24.1km/h 75% 0.00in /  0mm
18:29 20.7 °F /  -6.3 °C 12.8 °F /  -10.7 °C 29.70in /  1005.6hPa WNW 16.0mph /  25.7km/h 17.0mph /  27.4km/h 71% 0.00in /  0mm
18:34 20.9 °F /  -6.2 °C 12.0 °F /  -11.1 °C 29.70in /  1005.6hPa West 9.0mph /  14.5km/h 20.0mph /  32.2km/h 68% 0.00in /  0mm
18:39 21.0 °F /  -6.1 °C 11.8 °F /  -11.2 °C 29.70in /  1005.6hPa West 11.0mph /  17.7km/h 21.0mph /  33.8km/h 67% 0.00in /  0mm
18:44 21.1 °F /  -6.1 °C 11.5 °F /  -11.4 °C 29.70in /  1005.6hPa West 10.0mph /  16.1km/h 21.0mph /  33.8km/h 66% 0.00in /  0mm
18:49 21.2 °F /  -6 °C 11.6 °F /  -11.3 °C 29.70in /  1005.6hPa WSW 9.0mph /  14.5km/h 21.0mph /  33.8km/h 66% 0.00in /  0mm
18:54 21.2 °F /  -6 °C 10.9 °F /  -11.7 °C 29.70in /  1005.6hPa West 7.0mph /  11.3km/h 17.0mph /  27.4km/h 64% 0.00in /  0mm
18:59 21.4 °F /  -5.9 °C 11.1 °F /  -11.6 °C 29.70in /  1005.6hPa West 13.0mph /  20.9km/h 20.0mph /  32.2km/h 64% 0.00in /  0mm
19:04 21.4 °F /  -5.9 °C 10.7 °F /  -11.8 °C 29.70in /  1005.6hPa West 9.0mph /  14.5km/h 21.0mph /  33.8km/h 63% 0.00in /  0mm
19:09 21.4 °F /  -5.9 °C 10.4 °F /  -12 °C 29.70in /  1005.6hPa West 11.0mph /  17.7km/h 23.0mph /  37km/h 62% 0.00in /  0mm
19:14 21.4 °F /  -5.9 °C 10.4 °F /  -12 °C 29.70in /  1005.6hPa West 19.0mph /  30.6km/h 21.0mph /  33.8km/h 62% 0.00in /  0mm
19:19 21.3 °F /  -5.9 °C 10.7 °F /  -11.8 °C 29.71in /  1006hPa West 13.0mph /  20.9km/h 28.0mph /  45.1km/h 63% 0.00in /  0mm
19:24 20.9 °F /  -6.2 °C 10.3 °F /  -12.1 °C 29.71in /  1006hPa WNW 12.0mph /  19.3km/h 26.0mph /  41.8km/h 63% 0.00in /  0mm
19:29 20.7 °F /  -6.3 °C 10.8 °F /  -11.8 °C 29.71in /  1006hPa West 13.0mph /  20.9km/h 26.0mph /  41.8km/h 65% 0.00in /  0mm
19:34 20.7 °F /  -6.3 °C 10.4 °F /  -12 °C 29.71in /  1006hPa West 13.0mph /  20.9km/h 24.0mph /  38.6km/h 64% 0.00in /  0mm
19:39 20.6 °F /  -6.3 °C 10.0 °F /  -12.2 °C 29.71in /  1006hPa WSW 15.0mph /  24.1km/h 25.0mph /  40.2km/h 63% 0.00in /  0mm
19:44 20.6 °F /  -6.3 °C 10.3 °F /  -12.1 °C 29.72in /  1006.3hPa West 11.0mph /  17.7km/h 25.0mph /  40.2km/h 64% 0.00in /  0mm
19:49 20.4 °F /  -6.4 °C 9.8 °F /  -12.3 °C 29.73in /  1006.7hPa West 10.0mph /  16.1km/h 23.0mph /  37km/h 63% 0.00in /  0mm
19:54 20.2 °F /  -6.6 °C 8.5 °F /  -13.1 °C 29.73in /  1006.7hPa West 12.0mph /  19.3km/h 25.0mph /  40.2km/h 60% 0.00in /  0mm
19:59 19.9 °F /  -6.7 °C 7.9 °F /  -13.4 °C 29.73in /  1006.7hPa West 10.0mph /  16.1km/h 25.0mph /  40.2km/h 59% 0.00in /  0mm
20:04 19.6 °F /  -6.9 °C 8.0 °F /  -13.3 °C 29.74in /  1007hPa WSW 8.0mph /  12.9km/h 24.0mph /  38.6km/h 60% 0.00in /  0mm
20:09 19.5 °F /  -6.9 °C 8.2 °F /  -13.2 °C 29.74in /  1007hPa West 10.0mph /  16.1km/h 22.0mph /  35.4km/h 61% 0.00in /  0mm
20:14 19.2 °F /  -7.1 °C 7.9 °F /  -13.4 °C 29.75in /  1007.3hPa West 5.0mph /  8km/h 23.0mph /  37km/h 61% 0.00in /  0mm
20:19 19.1 °F /  -7.2 °C 8.2 °F /  -13.2 °C 29.75in /  1007.3hPa West 12.0mph /  19.3km/h 18.0mph /  29km/h 62% 0.00in /  0mm
20:24 19.0 °F /  -7.2 °C 7.7 °F /  -13.5 °C 29.75in /  1007.3hPa WNW 13.0mph /  20.9km/h 22.0mph /  35.4km/h 61% 0.00in /  0mm
20:29 18.8 °F /  -7.3 °C 7.6 °F /  -13.6 °C 29.76in /  1007.7hPa WNW 8.0mph /  12.9km/h 23.0mph /  37km/h 61% 0.00in /  0mm
20:34 18.6 °F /  -7.4 °C 7.4 °F /  -13.7 °C 29.76in /  1007.7hPa WNW 16.0mph /  25.7km/h 22.0mph /  35.4km/h 61% 0.00in /  0mm
20:39 18.5 °F /  -7.5 °C 7.3 °F /  -13.7 °C 29.77in /  1008hPa West 12.0mph /  19.3km/h 24.0mph /  38.6km/h 61% 0.00in /  0mm
20:44 18.4 °F /  -7.6 °C 7.2 °F /  -13.8 °C 29.77in /  1008hPa West 11.0mph /  17.7km/h 24.0mph /  38.6km/h 61% 0.00in /  0mm
20:49 18.3 °F /  -7.6 °C 6.7 °F /  -14.1 °C 29.77in /  1008hPa West 11.0mph /  17.7km/h 24.0mph /  38.6km/h 60% 0.00in /  0mm
20:54 18.2 °F /  -7.7 °C 6.6 °F /  -14.1 °C 29.77in /  1008hPa West 12.0mph /  19.3km/h 24.0mph /  38.6km/h 60% 0.00in /  0mm
20:59 18.2 °F /  -7.7 °C 6.6 °F /  -14.1 °C 29.77in /  1008hPa West 12.0mph /  19.3km/h 23.0mph /  37km/h 60% 0.00in /  0mm
21:04 18.1 °F /  -7.7 °C 6.9 °F /  -13.9 °C 29.77in /  1008hPa West 7.0mph /  11.3km/h 20.0mph /  32.2km/h 61% 0.00in /  0mm
21:09 18.1 °F /  -7.7 °C 6.5 °F /  -14.2 °C 29.78in /  1008.4hPa WSW 14.0mph /  22.5km/h 26.0mph /  41.8km/h 60% 0.00in /  0mm
21:14 18.1 °F /  -7.7 °C 6.2 °F /  -14.3 °C 29.77in /  1008hPa West 11.0mph /  17.7km/h 26.0mph /  41.8km/h 59% 0.00in /  0mm
21:19 18.1 °F /  -7.7 °C 6.2 °F /  -14.3 °C 29.77in /  1008hPa West 10.0mph /  16.1km/h 19.0mph /  30.6km/h 59% 0.00in /  0mm
21:24 18.2 °F /  -7.7 °C 6.3 °F /  -14.3 °C 29.77in /  1008hPa NW 16.0mph /  25.7km/h 27.0mph /  43.5km/h 59% 0.00in /  0mm
21:29 18.2 °F /  -7.7 °C 6.3 °F /  -14.3 °C 29.77in /  1008hPa West 15.0mph /  24.1km/h 25.0mph /  40.2km/h 59% 0.00in /  0mm
21:34 18.2 °F /  -7.7 °C 5.9 °F /  -14.5 °C 29.77in /  1008hPa WNW 7.0mph /  11.3km/h 26.0mph /  41.8km/h 58% 0.00in /  0mm
21:39 18.3 °F /  -7.6 °C 6.4 °F /  -14.2 °C 29.77in /  1008hPa West 16.0mph /  25.7km/h 22.0mph /  35.4km/h 59% 0.00in /  0mm
21:44 18.3 °F /  -7.6 °C 6.0 °F /  -14.4 °C 29.78in /  1008.4hPa West 12.0mph /  19.3km/h 26.0mph /  41.8km/h 58% 0.00in /  0mm
21:49 18.4 °F /  -7.6 °C 6.1 °F /  -14.4 °C 29.77in /  1008hPa West 12.0mph /  19.3km/h 26.0mph /  41.8km/h 58% 0.00in /  0mm
21:54 18.5 °F /  -7.5 °C 6.2 °F /  -14.3 °C 29.77in /  1008hPa West 11.0mph /  17.7km/h 26.0mph /  41.8km/h 58% 0.00in /  0mm
21:59 18.5 °F /  -7.5 °C 5.8 °F /  -14.6 °C 29.77in /  1008hPa West 12.0mph /  19.3km/h 26.0mph /  41.8km/h 57% 0.00in /  0mm
22:04 18.7 °F /  -7.4 °C 6.7 °F /  -14.1 °C 29.77in /  1008hPa West 11.0mph /  17.7km/h 26.0mph /  41.8km/h 59% 0.00in /  0mm
22:09 18.8 °F /  -7.3 °C 6.1 °F /  -14.4 °C 29.78in /  1008.4hPa WSW 8.0mph /  12.9km/h 24.0mph /  38.6km/h 57% 0.00in /  0mm
22:14 18.9 °F /  -7.3 °C 6.5 °F /  -14.2 °C 29.77in /  1008hPa West 12.0mph /  19.3km/h 28.0mph /  45.1km/h 58% 0.00in /  0mm
22:19 18.9 °F /  -7.3 °C 6.9 °F /  -13.9 °C 29.78in /  1008.4hPa West 11.0mph /  17.7km/h 28.0mph /  45.1km/h 59% 0.00in /  0mm
22:24 19.0 °F /  -7.2 °C 6.6 °F /  -14.1 °C 29.78in /  1008.4hPa NW 8.0mph /  12.9km/h 26.0mph /  41.8km/h 58% 0.00in /  0mm
22:29 19.0 °F /  -7.2 °C 6.6 °F /  -14.1 °C 29.78in /  1008.4hPa WSW 18.0mph /  29km/h 23.0mph /  37km/h 58% 0.00in /  0mm
22:34 19.0 °F /  -7.2 °C 7.0 °F /  -13.9 °C 29.77in /  1008hPa West 6.0mph /  9.7km/h 24.0mph /  38.6km/h 59% 0.00in /  0mm
22:39 19.0 °F /  -7.2 °C 6.6 °F /  -14.1 °C 29.78in /  1008.4hPa West 12.0mph /  19.3km/h 32.0mph /  51.5km/h 58% 0.00in /  0mm
22:44 19.0 °F /  -7.2 °C 7.0 °F /  -13.9 °C 29.78in /  1008.4hPa WNW 24.0mph /  38.6km/h 28.0mph /  45.1km/h 59% 0.00in /  0mm
22:49 19.0 °F /  -7.2 °C 7.0 °F /  -13.9 °C 29.78in /  1008.4hPa WNW 13.0mph /  20.9km/h 28.0mph /  45.1km/h 59% 0.00in /  0mm
22:54 19.0 °F /  -7.2 °C 7.4 °F /  -13.7 °C 29.78in /  1008.4hPa West 12.0mph /  19.3km/h 26.0mph /  41.8km/h 60% 0.00in /  0mm
22:59 19.1 °F /  -7.2 °C 7.1 °F /  -13.8 °C 29.78in /  1008.4hPa West 10.0mph /  16.1km/h 20.0mph /  32.2km/h 59% 0.00in /  0mm
23:04 19.1 °F /  -7.2 °C 7.8 °F /  -13.4 °C 29.78in /  1008.4hPa West 10.0mph /  16.1km/h 18.0mph /  29km/h 61% 0.00in /  0mm
23:09 19.2 °F /  -7.1 °C 7.6 °F /  -13.6 °C 29.78in /  1008.4hPa West 10.0mph /  16.1km/h 24.0mph /  38.6km/h 60% 0.00in /  0mm
23:14 19.2 °F /  -7.1 °C 7.6 °F /  -13.6 °C 29.78in /  1008.4hPa West 12.0mph /  19.3km/h 24.0mph /  38.6km/h 60% 0.00in /  0mm
23:19 19.2 °F /  -7.1 °C 7.9 °F /  -13.4 °C 29.78in /  1008.4hPa WNW 17.0mph /  27.4km/h 25.0mph /  40.2km/h 61% 0.00in /  0mm
23:24 19.2 °F /  -7.1 °C 7.9 °F /  -13.4 °C 29.78in /  1008.4hPa West 8.0mph /  12.9km/h 19.0mph /  30.6km/h 61% 0.00in /  0mm
23:29 19.1 °F /  -7.2 °C 7.1 °F /  -13.8 °C 29.78in /  1008.4hPa West 9.0mph /  14.5km/h 23.0mph /  37km/h 59% 0.00in /  0mm
23:34 19.2 °F /  -7.1 °C 7.6 °F /  -13.6 °C 29.78in /  1008.4hPa West 12.0mph /  19.3km/h 27.0mph /  43.5km/h 60% 0.00in /  0mm
23:39 19.2 °F /  -7.1 °C 7.6 °F /  -13.6 °C 29.78in /  1008.4hPa West 12.0mph /  19.3km/h 30.0mph /  48.3km/h 60% 0.00in /  0mm
23:44 19.1 °F /  -7.2 °C 7.8 °F /  -13.4 °C 29.78in /  1008.4hPa WSW 11.0mph /  17.7km/h 18.0mph /  29km/h 61% 0.00in /  0mm
23:49 19.0 °F /  -7.2 °C 7.7 °F /  -13.5 °C 29.78in /  1008.4hPa WSW 11.0mph /  17.7km/h 27.0mph /  43.5km/h 61% 0.00in /  0mm
23:54 19.0 °F /  -7.2 °C 8.1 °F /  -13.3 °C 29.78in /  1008.4hPa West 13.0mph /  20.9km/h 27.0mph /  43.5km/h 62% 0.00in /  0mm
23:59 18.9 °F /  -7.3 °C 8.4 °F /  -13.1 °C 29.78in /  1008.4hPa West 12.0mph /  19.3km/h 26.0mph /  41.8km/h 63% 0.00in /  0mm
Buffalo, New York, USA
Compliments of Weather Underground - 2.5 mb